Date,TemperatureHighF,TemperatureAvgF,TemperatureLowF,DewpointHighF,DewpointAvgF,DewpointLowF,HumidityHigh,HumidityAvg,HumidityLow,PressureMaxIn,PressureMinIn,WindSpeedMaxMPH,WindSpeedAvgMPH,GustSpeedMaxMPH,PrecipitationSumIn
2013-1-1,36.0,31.2,20.3,21.4,12.6,1.2,58,46,34,30.34,30.15,21,7,21,0.00
2013-1-2,33.1,18.7,7.5,11.2,2.2,-5.1,65,49,36,30.52,30.33,14,3,14,0.00
2013-1-3,33.1,11.8,-2.7,1.9,-7.5,-15.7,57,43,22,30.58,30.43,8,2,8,0.00
2013-1-4,40.6,27.4,13.1,21.8,13.3,3.4,75,56,44,30.41,30.25,17,4,17,0.00
2013-1-5,45.9,33.8,20.1,20.6,16.0,10.3,70,49,30,30.68,30.29,16,5,16,0.00
2013-1-6,47.7,31.5,20.7,27.9,20.5,12.4,80,65,41,30.64,30.35,14,2,14,0.01
2013-1-7,45.7,31.8,18.1,24.3,18.6,8.7,80,60,33,30.80,30.41,9,2,9,0.00
2013-1-8,50.9,30.8,12.2,26.5,17.9,4.3,82,60,36,30.78,30.69,17,4,17,0.00
2013-1-9,42.4,31.3,18.7,32.5,22.5,11.5,79,70,54,30.80,30.44,16,2,16,0.00
2013-1-10,48.2,40.0,27.5,27.3,20.3,16.5,67,46,32,30.94,30.52,18,6,18,0.00
2013-1-11,38.5,30.9,20.7,33.0,23.1,14.6,87,73,56,30.96,30.59,4,1,4,0.17
2013-1-12,42.8,38.1,35.1,39.9,35.2,31.9,93,89,87,30.60,30.52,3,1,3,0.04
2013-1-13,47.1,39.8,35.4,45.0,37.1,32.4,93,90,88,30.57,30.45,3,1,3,0.01
2013-1-14,56.5,48.0,37.9,49.7,39.4,23.9,95,75,35,30.67,30.29,17,4,17,0.01
2013-1-15,40.3,34.7,26.8,27.1,21.0,18.2,78,58,45,30.75,30.64,8,2,8,0.00
2013-1-16,33.8,31.6,29.5,29.1,26.5,22.9,85,81,71,30.66,30.25,3,0,3,0.00
2013-1-17,41.9,33.8,27.3,31.1,24.5,13.2,89,70,48,30.51,30.27,9,2,9,0.18
2013-1-18,28.6,21.3,15.1,6.8,-4.4,-13.6,54,33,21,30.85,30.45,14,5,14,0.00
2013-1-19,46.9,35.4,23.5,28.9,16.6,1.7,70,46,37,30.78,30.28,23,6,23,0.00
2013-1-20,51.4,40.8,28.4,28.0,21.3,2.5,62,47,21,30.35,29.99,27,8,27,0.00
2013-1-21,28.9,23.1,16.3,15.3,4.0,-2.2,73,45,28,30.50,30.29,14,2,14,0.00
2013-1-22,26.2,18.8,14.0,11.7,-1.8,-14.0,72,44,23,30.46,30.18,17,4,17,0.00
2013-1-23,16.9,9.7,5.0,-10.0,-14.8,-20.7,40,32,24,30.57,30.49,17,6,17,0.00
2013-1-24,21.9,7.8,-4.5,-8.6,-15.3,-20.5,54,35,22,30.64,30.51,16,5,16,0.00
2013-1-25,25.0,13.9,3.6,5.8,-11.6,-20.9,65,32,23,30.75,30.46,6,2,6,0.00
2013-1-26,29.5,14.8,3.0,4.1,-5.2,-12.3,65,43,23,30.68,30.42,16,3,16,0.00
2013-1-27,36.9,18.5,4.6,1.2,-5.7,-11.4,57,35,21,30.88,30.68,12,3,12,0.00
2013-1-28,30.0,20.9,9.7,21.7,7.3,-5.3,77,56,30,30.88,30.45,11,1,11,0.00
2013-1-29,37.8,31.3,26.2,29.9,25.1,21.2,83,78,66,30.60,30.41,4,1,4,0.12
2013-1-30,59.2,46.5,33.3,54.2,43.5,29.7,95,89,83,30.53,29.96,21,4,21,0.02
2013-1-31,61.2,49.0,34.3,57.3,36.1,5.8,91,65,28,29.95,29.40,26,10,26,0.77
2013-2-1,33.4,26.7,20.3,11.3,1.8,-5.0,53,34,24,30.50,30.03,17,7,17,0.00
2013-2-2,32.5,23.1,12.9,11.7,-1.0,-9.2,65,35,24,30.65,30.45,16,5,16,0.00
2013-2-3,35.6,23.5,13.8,16.6,11.3,6.0,73,60,41,30.46,30.17,6,1,6,0.00
2013-2-4,31.3,21.5,13.1,10.1,5.0,-3.8,71,51,25,30.33,30.16,17,4,17,0.00
2013-2-5,39.4,24.8,19.0,17.7,8.5,2.3,70,50,32,30.42,30.32,4,1,4,0.00
2013-2-6,40.5,29.2,19.9,22.4,13.8,-6.4,77,56,22,30.64,30.32,14,3,14,0.01
2013-2-7,40.1,24.4,10.6,7.7,0.7,-4.6,63,38,21,30.93,30.73,6,2,6,0.00
2013-2-8,30.7,25.8,18.7,24.7,16.0,-5.1,83,68,26,30.85,30.08,19,6,19,0.00
2013-2-9,28.2,19.5,15.3,15.5,6.4,-12.3,82,60,24,30.67,30.09,25,9,25,0.00
2013-2-10,36.5,11.5,-3.8,2.1,-8.6,-17.4,55,41,22,30.84,30.67,8,2,8,0.00
2013-2-11,44.4,30.1,11.8,42.2,23.6,1.3,94,77,55,30.75,30.07,11,2,11,0.12
2013-2-12,42.3,37.4,33.8,36.6,26.4,20.5,95,66,50,30.33,30.07,17,5,17,0.00
2013-2-13,54.5,37.8,32.2,23.4,19.0,15.1,61,47,25,30.30,30.15,7,3,7,0.00
2013-2-14,52.7,35.9,22.1,30.4,20.3,14.2,83,58,25,30.39,30.13,8,2,8,0.02
2013-2-15,55.4,39.1,26.6,32.0,26.0,17.3,83,62,34,30.40,30.31,13,3,13,0.00
2013-2-16,44.1,34.1,27.1,32.4,22.0,7.1,85,63,38,30.38,30.14,17,3,17,0.09
2013-2-17,27.5,23.3,18.0,7.3,-3.9,-9.5,43,30,22,30.14,29.92,27,10,27,0.00
2013-2-18,34.0,21.3,12.0,-0.5,-7.1,-11.9,36,28,21,30.56,30.21,14,6,14,0.00
2013-2-19,47.3,31.9,15.3,40.1,17.8,-2.0,92,57,38,30.60,30.05,9,2,9,0.18
2013-2-20,37.8,31.7,26.6,35.9,13.8,0.3,93,50,29,30.18,29.99,16,4,16,0.01
2013-2-21,32.5,26.7,23.4,9.2,5.5,1.3,49,40,32,30.52,30.23,24,8,24,0.00
2013-2-22,51.3,32.3,18.0,20.6,14.5,7.4,73,50,25,30.80,30.67,6,2,6,0.00
2013-2-23,37.0,33.9,32.0,29.7,24.9,19.2,85,70,58,30.72,30.29,8,2,8,0.01
2013-2-24,38.7,34.9,33.3,35.2,31.2,29.3,89,86,80,30.29,30.13,11,2,11,0.18
2013-2-25,46.0,34.7,26.4,39.0,27.5,22.1,91,75,52,30.64,30.32,9,1,9,0.06
2013-2-26,43.3,36.6,31.3,32.5,26.1,21.0,86,68,46,30.73,30.59,8,2,8,0.00
2013-2-27,42.8,38.3,34.0,39.4,34.0,24.6,90,84,64,30.51,30.01,17,7,17,0.69
2013-2-28,51.3,37.7,32.5,39.1,32.0,29.1,92,80,57,30.05,29.96,5,1,5,0.01
2013-3-1,46.8,37.2,30.6,37.5,25.6,19.9,92,65,40,30.12,29.97,14,3,14,0.00
2013-3-2,41.0,35.5,32.2,24.1,21.7,19.0,64,57,48,30.13,30.05,9,3,9,0.00
2013-3-3,35.4,31.8,29.5,26.7,21.4,16.5,82,66,56,30.09,30.01,9,4,9,0.00
2013-3-4,42.1,31.9,25.0,20.0,16.0,12.8,63,52,40,30.18,30.07,14,6,14,0.00
2013-3-5,54.3,36.1,24.8,26.1,19.3,13.1,66,51,31,30.45,30.22,9,3,9,0.00
2013-3-6,42.3,35.3,29.7,33.5,28.2,22.3,84,75,62,30.48,30.41,16,5,16,0.06
2013-3-7,36.5,33.1,30.7,29.4,26.2,22.1,89,76,58,30.47,30.42,14,2,14,0.02
2013-3-8,36.0,31.9,30.4,30.6,28.4,27.3,88,87,79,30.43,30.37,11,0,11,0.00
2013-3-9,64.6,41.1,25.0,24.7,20.5,14.6,77,49,18,30.76,30.58,12,3,12,0.30
2013-3-10,63.3,41.2,14.9,30.9,24.8,9.6,85,57,23,30.82,30.68,8,2,8,0.00
2013-3-11,55.2,41.7,35.1,38.6,33.0,16.1,88,73,25,30.73,30.56,14,4,14,2.69
2013-3-12,54.5,50.3,44.4,51.6,47.5,41.6,95,90,80,30.54,30.11,14,4,14,0.50
2013-3-13,51.8,41.6,30.4,40.2,26.8,15.6,91,61,26,30.23,30.16,14,4,14,0.01
2013-3-14,37.0,31.0,25.2,22.8,10.4,0.1,60,43,28,30.26,30.18,19,7,20,0.00
2013-3-15,43.7,30.9,22.5,25.7,10.7,-2.0,73,45,23,30.30,30.07,15,6,15,0.00
2013-3-16,44.2,33.4,24.4,22.0,10.9,3.3,64,40,23,30.30,30.13,9,2,9,0.00
2013-3-17,40.3,30.9,21.0,36.1,6.3,-7.4,97,38,21,30.62,30.30,21,5,21,0.00
2013-3-18,44.2,29.5,15.3,35.9,1.5,-5.4,97,31,21,30.86,30.64,6,2,6,0.00
2013-3-19,42.3,32.3,27.9,34.8,27.3,-10.4,88,82,10,30.58,30.06,15,4,15,0.17
2013-3-20,40.6,30.9,23.7,28.6,16.6,12.3,89,57,37,30.22,30.13,13,4,13,0.06
2013-3-21,45.5,30.3,19.0,22.0,11.9,4.3,78,51,22,30.23,30.01,8,2,8,0.01
2013-3-22,43.3,31.0,17.8,20.0,13.3,6.8,71,48,33,30.17,30.05,14,4,14,0.00
2013-3-23,43.5,35.3,29.1,20.2,16.2,12.7,64,47,31,30.25,30.12,21,7,21,0.00
2013-3-24,54.9,38.1,25.7,22.9,19.2,14.7,69,48,25,30.28,30.14,14,4,14,0.00
2013-3-25,48.6,36.7,28.0,27.4,23.1,19.0,73,59,38,30.19,29.91,16,4,16,0.00
2013-3-26,50.5,38.8,33.1,33.5,24.6,15.5,78,59,31,30.20,29.98,11,2,11,0.00
2013-3-27,57.0,37.6,21.2,32.2,21.4,14.8,80,55,26,30.30,30.19,21,3,21,0.00
2013-3-28,57.0,42.6,34.3,35.1,29.3,23.5,86,61,31,30.45,30.31,11,3,11,0.01
2013-3-29,59.9,43.7,28.0,34.2,27.3,21.6,85,56,29,30.50,30.41,12,3,12,0.00
2013-3-30,61.5,44.9,28.2,30.5,22.2,-18.0,81,46,10,30.53,30.44,14,3,14,0.00
2013-3-31,59.9,42.7,26.4,38.5,24.2,18.9,79,53,22,30.54,30.26,20,4,20,0.01
2013-4-1,61.7,46.0,37.8,44.5,38.2,15.6,99,77,39,30.17,29.96,24,5,24,0.20
2013-4-2,41.4,33.4,27.9,15.2,10.2,2.3,55,39,23,30.39,30.25,21,7,21,0.00
2013-4-3,45.7,35.9,28.4,14.7,10.4,5.8,54,36,21,30.57,30.38,22,9,22,0.00
2013-4-4,59.7,40.2,23.2,19.0,14.2,9.1,66,38,20,30.75,30.49,15,4,15,0.00
2013-4-5,67.1,47.4,34.9,30.4,23.7,15.8,74,44,18,30.46,30.09,18,5,18,0.00
2013-4-6,52.7,39.1,30.0,26.7,11.6,1.2,65,34,20,30.66,30.33,18,7,18,0.00
2013-4-7,60.3,42.5,25.5,39.8,22.9,12.1,73,48,26,30.73,30.39,19,5,19,0.00
2013-4-8,75.7,52.6,35.4,46.6,36.4,24.3,99,64,18,30.50,30.38,9,2,9,0.00
2013-4-9,70.7,59.1,46.9,53.3,44.1,37.1,98,62,30,30.46,30.30,16,4,16,0.02
2013-4-10,70.3,56.2,47.1,54.9,48.2,43.4,99,77,44,30.43,30.26,6,2,6,0.13
2013-4-11,60.1,50.0,43.5,50.5,39.9,26.6,99,72,41,30.50,30.25,12,4,12,0.01
2013-4-12,39.6,37.8,36.3,37.7,35.7,32.4,99,92,76,30.55,30.22,14,4,14,0.60
2013-4-13,56.3,44.1,35.2,40.1,35.9,31.1,98,76,42,30.34,30.18,11,3,11,0.08
2013-4-14,53.1,43.9,34.5,41.8,30.1,20.4,99,63,30,30.62,30.33,17,4,17,0.00
2013-4-15,68.5,45.6,27.9,34.2,28.9,24.8,94,59,23,30.80,30.65,10,2,10,0.00
2013-4-16,68.4,51.7,35.2,51.4,40.2,29.9,94,67,37,30.81,30.53,24,5,24,0.02
2013-4-17,73.2,57.3,42.3,52.9,36.3,23.2,98,52,17,30.76,30.51,11,4,11,0.01
2013-4-18,66.6,50.6,34.2,40.1,31.4,25.0,89,54,26,30.82,30.62,12,3,12,0.00
2013-4-19,76.5,63.0,52.3,63.6,57.8,46.9,99,84,56,30.56,30.07,22,7,22,0.00
2013-4-20,63.1,51.1,39.4,62.1,36.7,20.8,99,63,26,30.69,30.05,16,6,16,0.39
2013-4-21,61.2,43.5,28.2,25.2,18.5,14.6,72,40,20,31.02,30.69,16,4,16,0.00
2013-4-22,59.7,44.7,30.2,33.4,26.0,16.2,90,55,23,31.13,30.98,14,4,14,0.00
2013-4-23,43.5,39.9,34.9,39.1,34.7,28.3,91,82,70,30.98,30.63,13,4,13,0.00
2013-4-24,77.4,56.5,41.4,48.6,42.8,37.8,99,67,25,30.53,30.21,16,5,16,0.00
2013-4-25,68.4,54.7,44.8,51.6,34.3,19.1,99,53,18,30.65,30.26,14,5,14,0.09
2013-4-26,71.8,51.9,31.5,38.3,30.2,21.8,92,52,16,30.81,30.69,14,3,14,0.00
2013-4-27,73.8,53.5,32.9,39.2,33.3,23.1,96,54,17,30.84,30.68,9,2,9,0.00
2013-4-28,75.9,56.9,37.2,41.5,34.6,27.2,98,52,19,30.76,30.60,14,3,14,0.00
2013-4-29,70.9,56.3,45.0,46.1,33.9,19.9,83,48,21,30.69,30.61,98,3,98,0.00
2013-4-30,81.3,63.1,46.8,42.6,30.6,20.0,78,36,13,30.74,30.65,11,2,11,0.00
2013-5-1,83.1,58.6,36.9,37.9,31.8,24.4,83,45,15,30.89,30.76,8,2,8,0.00
2013-5-2,89.1,62.7,39.9,47.4,39.6,33.2,99,54,16,30.89,30.69,14,2,14,0.00
2013-5-3,73.6,56.9,39.9,44.4,38.9,34.4,86,54,30,30.93,30.77,13,4,13,0.00
2013-5-4,76.8,58.2,39.0,46.2,35.9,19.8,99,53,14,30.80,30.66,12,3,12,0.00
2013-5-5,77.2,54.6,33.4,38.8,33.7,27.1,99,53,18,30.74,30.60,11,2,11,0.00
2013-5-6,81.3,57.8,38.7,48.6,41.8,37.5,99,64,22,30.71,30.52,9,2,9,0.00
2013-5-7,87.4,64.2,43.2,55.5,48.1,42.3,99,64,23,30.60,30.48,10,2,12,0.00
2013-5-8,74.8,63.0,52.9,63.5,57.1,52.3,99,83,55,30.59,30.46,13,3,13,0.38
2013-5-9,72.1,60.9,54.5,61.9,57.9,53.7,99,91,62,30.46,30.29,4,1,4,0.19
2013-5-10,85.1,67.4,54.3,61.8,55.1,50.1,99,70,32,30.40,30.31,11,2,11,0.01
2013-5-11,66.6,62.6,58.5,62.8,59.0,54.6,99,88,75,30.33,30.15,17,3,17,0.09
2013-5-12,73.4,61.9,56.5,60.3,51.5,31.2,99,73,36,30.15,30.01,16,3,16,0.01
2013-5-13,63.7,48.3,35.8,36.2,28.9,22.6,92,50,23,30.46,30.26,13,3,13,0.00
2013-5-14,61.7,48.9,36.9,36.7,30.5,23.0,93,55,24,30.49,30.42,11,2,11,0.00
2013-5-15,64.8,47.6,31.8,53.3,37.0,30.2,99,73,29,30.49,30.13,14,3,14,0.06
2013-5-16,85.3,65.3,44.1,54.0,41.0,30.5,99,54,16,30.17,30.07,15,4,15,0.01
2013-5-17,78.1,61.1,45.1,45.2,39.6,29.2,93,50,21,30.60,30.24,10,3,10,0.00
2013-5-18,78.3,59.4,40.8,48.1,42.2,34.1,99,61,21,30.74,30.64,15,3,15,0.00
2013-5-19,68.4,56.1,45.1,56.7,51.7,7.8,99,86,57,30.76,30.61,9,1,9,0.13
2013-5-20,89.6,69.1,55.4,67.9,60.6,55.1,99,78,44,30.61,30.34,7,2,7,0.01
2013-5-21,95.5,72.2,56.5,73.1,64.3,55.6,99,81,40,30.40,30.21,11,2,11,0.48
2013-5-22,83.8,65.3,52.9,71.1,60.9,51.9,99,87,61,30.46,30.23,11,2,11,0.22
2013-5-23,77.2,68.6,65.5,70.7,66.7,65.2,99,94,78,30.31,30.24,12,3,12,0.96
2013-5-24,68.5,61.3,47.1,67.3,58.1,44.2,99,90,73,30.29,30.05,13,3,13,0.69
2013-5-25,48.0,46.2,45.1,47.8,45.5,43.8,99,97,93,30.30,30.20,10,3,10,0.47
2013-5-26,57.2,47.9,39.7,47.2,41.5,38.1,99,80,53,30.55,30.20,14,3,14,0.04
2013-5-27,77.9,56.5,37.0,45.0,37.2,29.6,99,60,20,30.60,30.50,14,3,14,0.01
2013-5-28,80.4,60.2,40.8,52.5,44.2,35.2,99,64,21,30.65,30.57,11,2,11,0.00
2013-5-29,85.1,66.1,57.2,69.7,61.4,55.7,99,87,53,30.59,30.37,7,1,7,0.40
2013-5-30,94.8,76.0,59.2,73.2,65.5,58.9,99,75,40,30.53,30.44,9,2,9,0.01
2013-5-31,98.2,79.0,62.1,71.9,65.7,58.8,99,71,30,30.53,30.39,100,2,100,0.00
2013-6-1,96.6,78.8,61.3,69.7,65.9,60.8,98,68,36,30.42,30.29,14,3,14,0.00
2013-6-2,90.7,77.7,66.0,71.4,66.9,62.0,97,73,41,30.33,30.15,20,4,20,0.07
2013-6-3,84.6,69.7,55.6,68.7,62.6,45.2,99,81,48,30.31,30.20,7,2,7,0.57
2013-6-4,79.2,60.9,43.9,53.9,44.2,40.0,97,59,30,30.42,30.30,11,3,11,0.00
2013-6-5,82.6,62.6,46.4,54.4,48.2,39.7,99,68,24,30.62,30.51,99,2,99,0.00
2013-6-6,77.4,63.3,49.5,55.5,50.9,45.2,96,67,34,30.60,30.50,11,2,11,0.00
2013-6-7,58.6,56.3,53.6,58.4,55.8,52.8,99,98,96,30.50,30.25,11,1,11,1.32
2013-6-8,79.0,60.4,52.0,63.6,55.6,51.4,99,87,53,30.28,30.06,8,3,8,0.58
2013-6-9,86.7,68.8,54.3,59.9,55.5,51.3,99,68,31,30.58,30.45,11,2,11,0.00
2013-6-10,73.4,61.9,52.3,63.8,58.8,51.8,99,90,63,30.62,30.44,3,1,3,0.37
2013-6-11,76.5,61.7,56.5,65.1,59.6,56.2,99,93,66,30.36,29.98,6,2,6,0.72
2013-6-12,76.3,63.4,53.4,60.1,54.3,50.5,98,74,45,30.26,30.01,11,4,11,0.00
2013-6-13,61.0,54.6,48.7,59.2,53.9,48.5,99,97,93,30.26,30.09,6,1,6,0.61
2013-6-14,85.3,62.1,50.2,60.1,53.7,49.9,99,78,36,30.20,30.04,7,2,7,0.50
2013-6-15,86.7,65.8,47.7,59.5,48.4,34.6,99,63,19,30.38,30.24,9,2,9,0.00
2013-6-16,79.9,64.1,47.7,63.9,54.7,47.4,99,74,44,30.39,30.13,13,2,13,0.00
2013-6-17,88.3,71.6,58.1,65.1,60.7,57.2,99,73,36,30.30,30.20,11,2,11,0.13
2013-6-18,84.2,65.0,57.2,68.3,61.4,56.9,99,89,53,30.36,30.29,11,1,11,0.09
2013-6-19,85.5,66.3,52.9,56.9,51.5,37.0,99,68,20,30.47,30.33,9,2,9,0.04
2013-6-20,88.9,65.9,46.8,57.4,51.1,45.7,99,66,27,30.70,30.59,8,2,8,0.00
2013-6-21,90.3,70.9,53.8,68.0,59.9,52.9,99,71,40,30.68,30.60,6,2,6,0.00
2013-6-22,89.6,72.7,58.1,63.3,59.5,53.6,95,67,34,30.66,30.53,99,3,99,0.00
2013-6-23,93.0,77.6,62.4,71.7,64.8,57.0,87,66,43,30.60,30.43,13,3,13,0.00
2013-6-24,99.9,81.9,66.9,72.8,69.3,63.1,98,70,35,30.47,30.32,12,2,12,0.04
2013-6-25,94.8,77.8,63.1,72.1,67.6,62.3,99,75,42,30.39,30.16,11,2,11,0.04
2013-6-26,87.6,76.1,66.9,72.5,68.7,65.8,99,80,51,30.21,30.17,8,2,8,0.01
2013-6-27,86.4,73.6,66.4,71.3,69.1,66.1,99,87,60,30.26,30.15,5,1,5,0.05
2013-6-28,82.2,71.0,65.5,76.0,69.1,65.2,99,94,73,30.11,29.89,9,3,9,0.51
2013-6-29,88.9,75.9,67.8,71.3,68.7,18.2,99,80,48,30.13,29.91,14,3,14,0.00
2013-6-30,90.1,77.3,67.5,72.9,69.8,18.8,98,80,50,30.33,30.14,12,2,12,0.00
2013-7-1,80.1,74.5,71.6,75.7,72.1,69.7,99,92,79,30.44,30.35,18,1,18,0.78
2013-7-2,86.5,77.1,72.0,74.3,72.1,70.4,97,85,64,30.56,30.47,8,3,8,0.02
2013-7-3,91.4,79.5,72.9,74.2,72.0,69.4,94,79,52,30.63,30.56,12,4,12,0.00
2013-7-4,95.9,82.0,56.3,75.5,72.8,50.9,98,76,46,30.63,30.52,12,3,12,0.00
2013-7-5,96.1,84.5,72.1,75.3,72.3,69.7,96,70,43,30.59,30.47,14,3,14,0.00
2013-7-6,96.3,82.5,72.0,75.3,72.0,67.9,96,74,42,30.53,30.44,8,2,8,0.00
2013-7-7,98.4,78.4,69.3,76.1,71.7,66.9,98,83,43,30.47,30.34,10,1,10,0.50
2013-7-8,95.4,79.0,69.1,77.8,71.2,67.2,99,80,42,30.40,30.34,8,1,8,0.13
2013-7-9,86.5,74.5,69.1,73.9,70.4,68.7,99,88,63,30.50,30.42,4,1,4,0.00
2013-7-10,88.0,76.3,70.5,78.3,72.2,69.0,96,87,64,30.46,30.19,9,2,9,0.27
2013-7-11,90.0,77.5,70.3,75.9,71.3,65.7,99,83,51,30.31,30.19,6,1,6,0.01
2013-7-12,86.2,73.6,63.9,67.1,63.2,57.3,99,73,47,30.58,30.35,7,2,8,0.00
2013-7-13,85.3,72.2,65.7,74.8,67.4,58.9,97,85,67,30.71,30.60,4,1,4,0.08
2013-7-14,99.0,83.1,71.6,75.8,72.2,68.0,99,73,42,30.72,30.62,9,1,9,0.01
2013-7-15,104.0,83.4,70.2,77.9,71.9,68.2,98,73,36,30.65,30.53,4,1,4,0.00
2013-7-16,103.1,83.1,66.9,73.4,69.3,65.4,99,69,33,30.61,30.53,26,1,26,0.00
2013-7-17,100.6,88.6,68.4,73.9,71.1,26.3,98,60,10,30.62,30.44,5,2,5,0.00
2013-7-18,102.2,86.1,71.6,75.7,72.4,68.0,96,68,37,30.46,30.35,6,1,6,0.00
2013-7-19,99.5,87.0,72.3,76.4,72.9,69.6,97,67,41,30.38,30.16,13,3,13,0.00
2013-7-20,92.8,82.6,75.4,77.4,74.4,68.5,95,77,52,30.20,30.09,10,2,10,0.04
2013-7-21,96.1,76.5,63.7,70.4,65.2,59.3,96,72,32,30.39,30.27,5,1,5,0.00
2013-7-22,90.5,76.5,64.8,72.1,68.3,64.3,99,79,43,30.42,30.26,5,1,5,0.00
2013-7-23,88.2,75.2,71.2,78.7,72.4,69.2,98,91,64,30.26,29.95,11,1,11,1.59
2013-7-24,87.6,76.5,70.0,74.2,68.0,59.9,99,78,42,30.20,30.01,98,2,98,0.12
2013-7-25,68.0,62.2,57.9,59.1,53.4,47.7,96,73,63,30.51,30.39,10,2,10,0.08
2013-7-26,75.6,65.5,60.1,65.4,62.3,59.4,99,90,66,30.48,30.40,4,1,4,0.27
2013-7-27,90.5,71.3,56.8,69.5,62.3,56.6,99,77,38,30.48,30.39,8,1,8,0.00
2013-7-28,89.1,73.0,62.2,70.0,65.1,61.3,98,79,43,30.42,30.36,6,1,6,0.00
2013-7-29,88.5,71.0,66.2,70.8,65.2,58.8,99,85,39,30.45,30.38,5,1,5,0.00
2013-7-30,89.6,72.2,57.7,61.8,59.0,54.6,98,68,34,30.54,30.47,7,2,7,0.00
2013-7-31,92.5,71.9,56.3,63.6,58.6,52.2,99,70,28,30.57,30.46,4,1,4,0.00
2013-8-1,82.2,67.4,58.3,69.4,63.2,58.0,99,88,58,30.47,30.31,8,1,8,0.00
2013-8-2,88.7,73.5,64.0,69.0,63.4,56.7,99,75,37,30.30,30.21,11,2,11,0.14
2013-8-3,87.6,70.2,61.2,67.0,62.8,60.6,99,79,43,30.30,30.21,11,2,11,0.01
2013-8-4,84.0,67.6,54.1,61.0,56.8,53.1,99,73,38,30.30,30.22,8,2,8,0.00
2013-8-5,84.0,63.7,49.6,57.4,50.1,43.5,99,69,26,30.46,30.34,8,2,8,0.00
2013-8-6,90.5,66.3,48.7,58.5,53.4,48.4,99,70,29,30.56,30.48,7,1,7,0.00
2013-8-7,84.7,68.1,54.7,62.9,56.9,50.4,99,73,34,30.60,30.52,10,2,10,0.00
2013-8-8,84.2,73.2,66.9,73.1,68.0,62.1,97,84,64,30.52,30.41,28,3,28,0.01
2013-8-9,77.5,73.3,71.2,76.4,71.8,69.0,99,95,88,30.44,30.17,10,2,10,1.56
2013-8-10,87.3,72.6,58.1,70.3,60.3,16.2,99,70,33,30.45,30.24,10,2,10,0.01
2013-8-11,88.0,66.7,49.1,61.4,54.2,48.8,99,70,32,30.53,30.42,8,1,8,0.00
2013-8-12,91.0,71.8,57.7,66.0,59.1,52.8,99,71,31,30.46,30.33,7,1,7,0.00
2013-8-13,81.3,68.8,62.6,69.7,65.5,60.8,99,90,60,30.36,30.10,7,1,7,0.07
2013-8-14,76.6,64.5,52.3,65.7,55.3,50.4,99,76,44,30.25,30.12,11,3,11,0.01
2013-8-15,83.1,64.1,48.0,57.3,52.2,46.8,99,71,30,30.53,30.41,11,1,11,0.00
2013-8-16,83.7,64.4,49.1,63.2,55.7,48.8,99,78,38,30.62,30.54,6,1,6,0.00
2013-8-17,93.4,68.4,52.3,65.4,57.9,28.1,99,76,10,30.70,30.62,4,1,4,0.00
2013-8-18,81.9,68.1,56.5,69.0,62.3,56.2,99,84,55,30.70,30.53,3,1,3,0.00
2013-8-19,84.7,69.8,55.8,65.7,60.4,55.5,99,76,44,30.53,30.39,9,1,9,0.00
2013-8-20,95.9,73.7,56.5,68.3,61.4,56.2,99,72,33,30.52,30.43,5,1,5,0.00
2013-8-21,95.5,73.7,57.4,68.5,62.9,57.1,99,75,36,30.59,30.46,9,1,9,0.00
2013-8-22,87.4,72.5,59.5,73.0,66.7,59.3,99,83,59,30.48,30.26,9,2,9,0.00
2013-8-23,89.2,72.2,57.7,70.1,60.6,53.4,99,72,33,30.56,30.27,7,2,7,0.02
2013-8-24,92.1,68.2,50.5,59.3,53.2,49.4,99,66,26,30.72,30.56,5,1,5,0.00
2013-8-25,90.3,67.6,49.8,63.0,54.4,49.6,99,70,27,30.81,30.62,8,1,8,0.00
2013-8-26,82.0,70.6,63.1,67.7,62.0,57.6,88,75,57,30.62,30.33,10,2,10,0.00
2013-8-27,96.3,77.3,67.6,74.0,69.5,67.3,99,81,41,30.31,30.24,4,1,4,0.15
2013-8-28,92.8,77.4,67.3,73.5,69.5,67.0,99,80,46,30.33,30.25,7,1,7,0.01
2013-8-29,74.1,68.6,64.6,69.0,65.4,61.1,99,90,78,30.48,30.33,5,1,5,0.02
2013-8-30,84.4,64.5,57.2,69.4,61.7,56.9,99,92,60,30.46,30.32,6,1,6,0.00
2013-8-31,80.2,72.6,68.0,73.7,70.1,66.8,97,92,79,30.27,30.20,8,2,8,0.00
2013-9-1,81.3,72.4,68.4,76.9,71.2,68.1,99,96,81,30.30,30.22,7,1,7,0.76
2013-9-2,81.5,74.4,70.9,77.6,72.6,70.3,99,94,81,30.26,30.11,98,2,98,23.69
2013-9-3,82.4,72.1,61.7,70.8,65.4,57.7,99,80,58,30.25,30.15,8,1,8,0.00
2013-9-4,86.2,66.4,55.2,62.9,57.0,51.2,99,77,32,30.35,30.26,10,2,10,0.00
2013-9-5,81.1,65.8,56.1,66.3,55.3,44.1,99,74,32,30.49,30.30,11,1,11,0.04
2013-9-6,76.6,56.2,42.3,53.9,45.2,35.9,99,74,24,30.67,30.52,5,1,5,0.00
2013-9-7,76.5,51.3,44.1,52.6,46.7,43.5,99,87,42,30.53,30.42,7,1,7,0.00
2013-9-8,81.0,65.9,54.3,64.0,54.9,40.5,99,71,31,30.46,30.20,11,2,11,0.00
2013-9-9,74.1,56.1,40.3,53.7,45.3,40.0,99,73,32,30.66,30.53,8,1,8,0.00
2013-9-10,75.7,66.5,55.9,71.7,63.9,52.9,99,92,82,30.57,30.43,9,2,9,0.22
2013-9-11,98.6,80.5,65.8,78.8,71.6,65.6,99,78,41,30.50,30.36,10,2,10,0.01
2013-9-12,87.4,75.3,65.7,75.7,70.4,65.4,99,86,60,30.39,30.09,12,2,12,0.12
2013-9-13,84.0,68.4,58.3,71.8,63.4,53.3,99,85,50,30.21,30.01,7,2,7,0.01
2013-9-14,75.0,58.4,49.1,53.8,51.7,48.8,99,80,45,30.49,30.22,8,2,8,0.00
2013-9-15,75.9,57.3,42.4,54.3,47.8,42.2,99,76,37,30.60,30.48,7,1,7,0.00
2013-9-16,72.9,58.6,52.2,58.9,53.0,1.3,99,84,10,30.58,30.44,7,1,7,0.02
2013-9-17,76.3,53.5,36.5,46.9,39.3,34.5,99,65,26,30.84,30.68,8,2,8,0.00
2013-9-18,81.9,56.1,37.6,53.7,45.2,37.3,99,74,26,30.75,30.57,6,1,6,0.00
2013-9-19,89.1,60.7,42.1,58.5,49.3,41.8,99,74,26,30.58,30.46,4,1,4,0.00
2013-9-20,90.5,63.3,45.1,63.5,53.5,44.3,99,76,33,30.51,30.41,6,1,6,0.00
2013-9-21,76.5,64.4,52.5,66.6,59.6,52.0,99,85,65,30.45,30.12,14,2,14,0.00
2013-9-22,70.2,64.2,58.8,66.6,62.6,58.6,99,95,87,30.12,30.01,12,2,12,0.69
2013-9-23,71.8,53.7,40.6,46.5,43.6,40.4,99,73,38,30.41,30.28,8,2,8,0.00
2013-9-24,76.1,53.3,37.0,49.3,42.2,36.3,99,72,31,30.44,30.25,8,2,8,0.00
2013-9-25,83.3,57.8,39.0,55.0,46.4,38.8,99,73,34,30.35,30.28,5,1,5,0.00
2013-9-26,77.9,61.5,51.6,54.3,50.3,45.0,93,71,33,30.49,30.40,4,1,4,0.00
2013-9-27,66.7,54.4,49.6,55.3,52.0,49.1,99,92,60,30.68,30.53,5,0,5,48.73
2013-9-28,85.1,59.7,45.1,58.8,52.0,44.3,99,80,34,30.75,30.67,4,0,4,0.00
2013-9-29,83.7,60.4,46.8,60.9,49.4,45.3,99,74,29,30.68,30.51,4,1,4,0.00
2013-9-30,86.4,58.5,40.8,58.0,48.1,40.6,99,76,26,30.53,30.38,4,1,4,0.00
2013-10-1,91.8,62.0,43.5,60.6,51.9,43.0,99,76,31,30.41,30.28,4,1,4,0.00
2013-10-2,83.3,63.2,47.1,62.3,54.8,46.9,99,78,46,30.35,30.30,12,2,12,0.00
2013-10-3,83.8,61.4,45.1,56.8,50.6,44.3,99,74,28,30.53,30.41,4,1,4,0.00
2013-10-4,67.6,56.5,49.8,64.3,54.9,49.6,99,95,78,30.53,30.44,3,1,3,0.50
2013-10-5,81.5,64.9,58.3,65.4,60.9,58.0,99,88,54,30.53,30.46,4,0,4,0.01
2013-10-6,62.8,57.6,55.4,61.6,57.2,54.8,99,98,96,30.60,30.50,5,1,5,0.48
2013-10-7,80.4,66.7,56.5,70.2,63.5,56.2,99,90,67,30.52,30.18,20,4,20,0.06
2013-10-8,78.4,58.4,46.0,59.2,46.9,36.7,99,72,28,30.71,30.35,8,2,8,0.01
2013-10-9,73.9,51.7,38.5,47.7,42.8,38.2,99,77,35,30.87,30.77,8,2,8,0.00
2013-10-10,64.4,50.5,39.7,52.5,46.6,39.5,99,88,62,30.77,30.59,5,1,5,0.00
2013-10-11,83.1,57.5,43.7,58.3,48.0,36.4,99,75,31,30.58,30.48,9,1,9,0.00
2013-10-12,64.8,53.6,44.2,58.5,50.4,43.7,99,89,70,30.78,30.56,12,2,12,0.00
2013-10-13,68.7,55.6,46.2,50.4,48.0,44.0,95,76,47,30.84,30.77,8,2,8,0.00
2013-10-14,82.0,54.3,38.5,52.1,44.5,38.2,99,75,28,30.81,30.64,4,1,4,0.00
2013-10-15,83.7,60.8,49.8,55.0,50.4,47.3,96,73,34,30.68,30.55,6,1,6,0.00
2013-10-16,62.8,54.0,46.2,53.3,49.4,45.4,99,86,62,30.58,30.38,3,1,3,0.00
2013-10-17,82.4,63.0,51.1,60.1,56.0,50.7,99,81,42,30.32,30.16,8,2,8,0.00
2013-10-18,68.9,61.5,48.0,61.3,49.8,41.4,96,68,38,30.30,30.03,12,4,12,0.02
2013-10-19,71.4,53.2,37.2,50.9,41.4,36.2,99,70,31,30.39,30.15,12,2,12,0.00
2013-10-20,66.0,54.5,43.0,50.8,39.5,27.4,99,63,25,30.40,30.11,13,3,13,0.04
2013-10-21,72.9,52.1,34.7,44.9,38.3,32.6,98,65,28,30.54,30.42,11,2,11,0.00
2013-10-22,66.0,52.8,42.8,54.7,46.0,40.6,99,80,53,30.40,30.13,11,2,11,0.01
2013-10-23,54.9,41.7,32.5,41.3,35.4,31.3,98,80,47,30.22,30.00,3,0,3,0.00
2013-10-24,61.5,44.3,32.2,38.1,29.2,4.3,94,61,10,30.27,30.09,24,3,24,0.00
2013-10-25,52.3,39.7,27.9,40.9,27.9,23.8,93,66,34,30.51,30.33,11,3,11,0.00
2013-10-26,58.6,41.6,26.1,38.7,27.2,22.3,94,62,26,30.58,30.30,21,4,21,0.00
2013-10-27,55.6,48.7,42.6,36.8,32.0,27.0,74,53,36,30.42,30.22,14,4,14,0.00
2013-10-28,61.0,42.6,27.0,39.1,30.2,23.9,94,66,33,30.70,30.50,11,3,11,0.00
2013-10-29,61.3,39.7,28.2,29.2,23.7,16.9,86,58,22,30.86,30.76,7,1,7,0.00
2013-10-30,63.0,40.0,27.9,42.3,31.4,22.2,91,73,43,30.77,30.60,4,1,4,0.01
2013-10-31,60.8,44.6,31.8,59.0,42.9,31.0,99,94,82,30.66,30.31,11,2,11,0.08
2013-11-1,70.3,63.9,59.2,62.4,57.5,52.8,92,80,58,30.17,29.88,23,8,23,0.18
2013-11-2,74.1,54.2,38.7,49.3,42.0,37.0,99,69,28,30.12,30.00,9,1,9,0.07
2013-11-3,54.3,42.8,33.3,46.1,27.8,13.0,99,59,25,30.82,30.17,12,5,12,0.00
2013-11-4,56.1,35.5,24.8,19.8,15.5,10.5,67,47,21,31.08,30.84,7,2,7,0.00
2013-11-5,57.4,38.4,23.5,35.1,26.7,18.3,84,66,38,31.11,30.94,8,1,8,0.00
2013-11-6,63.7,50.3,39.2,44.8,40.4,35.2,91,71,46,30.91,30.59,19,3,19,0.00
2013-11-7,61.9,54.3,39.9,56.9,50.9,35.9,94,88,80,30.45,30.12,14,4,14,0.20
2013-11-8,49.6,38.4,27.7,37.4,26.2,20.8,93,63,34,30.51,30.26,17,4,17,0.01
2013-11-9,48.7,36.6,25.5,31.4,24.5,20.0,86,63,39,30.64,30.45,9,2,9,0.00
2013-11-10,53.4,44.6,39.2,45.9,36.0,29.9,97,73,52,30.41,30.18,11,2,11,0.04
2013-11-11,139.6,45.0,37.4,28.7,26.3,22.9,63,49,29,30.53,30.35,26,6,26,0.00
2013-11-12,49.1,37.8,32.0,37.0,24.5,6.1,89,60,17,30.58,30.30,18,6,18,0.05
2013-11-13,41.0,27.5,17.4,21.3,10.8,4.8,77,52,27,30.72,30.62,100,4,100,0.00
2013-11-14,57.4,40.1,30.0,21.2,17.6,13.8,57,42,23,30.59,30.47,16,4,16,0.24
2013-11-15,65.1,44.1,23.0,32.5,20.7,14.9,85,48,18,30.63,30.52,12,2,12,152.80
2013-11-16,71.8,45.4,33.1,36.9,29.4,-16.9,83,59,10,30.73,30.60,5,1,5,0.00
2013-11-17,59.0,46.0,33.4,54.5,41.4,-33.8,94,84,76,30.71,30.42,8,2,8,0.00
2013-11-18,69.6,61.4,-0.6,61.0,48.0,-1.8,95,66,32,30.22,29.96,15,6,15,0.21
2013-11-19,46.4,41.2,35.4,30.2,21.3,16.5,56,45,33,30.58,30.12,17,9,17,0.00
2013-11-20,49.6,33.4,24.6,16.5,12.8,9.2,61,44,24,30.99,30.73,11,4,11,0.13
2013-11-21,51.3,31.3,16.5,28.5,18.6,10.9,83,62,31,31.05,30.86,8,1,8,0.00
2013-11-22,50.0,43.0,37.8,48.9,41.1,31.4,99,93,77,30.78,30.28,4,1,4,0.18
2013-11-23,47.8,38.4,27.1,47.0,24.2,9.8,99,58,36,30.38,30.24,19,6,19,0.01
2013-11-24,28.6,22.9,17.6,12.7,-1.1,-7.4,54,36,22,30.59,30.27,105,10,105,0.00
2013-11-25,38.7,23.6,11.1,11.0,-1.0,-9.1,56,35,24,30.81,30.65,12,3,12,0.00
2013-11-26,87.6,34.2,29.5,30.4,17.8,10.4,89,52,10,30.73,30.55,14,3,14,0.06
2013-11-27,59.0,45.4,35.2,58.5,44.6,31.0,99,97,84,30.39,29.70,11,4,11,1.28
2013-11-28,35.6,29.1,19.8,29.4,11.3,0.7,78,49,28,30.83,29.96,23,8,23,0.00
2013-11-29,39.2,24.9,15.6,19.3,11.2,5.5,80,58,28,31.14,30.85,8,2,8,0.00
2013-11-30,39.9,23.2,9.7,21.6,9.4,2.5,78,58,30,31.20,30.81,8,1,8,0.00
2013-12-1,42.8,35.2,29.5,36.1,28.1,20.2,89,75,67,30.81,30.45,3,1,3,0.00
2013-12-2,41.2,36.1,30.0,37.9,33.9,27.9,98,92,84,30.43,30.32,3,0,3,0.00
2013-12-3,57.4,38.8,32.4,41.4,33.4,26.9,99,83,45,30.37,30.27,5,1,5,0.00
2013-12-4,54.9,37.2,23.4,34.0,26.6,19.2,89,68,35,30.56,30.41,52,2,52,0.00
2013-12-5,50.4,42.2,32.4,48.7,39.3,27.2,95,89,79,30.60,30.41,4,1,4,0.04
2013-12-12,12.2,12.1,11.7,1.6,1.0,0.3,62,60,58,29.88,29.86,0,0,0,0.00
2013-12-13,31.6,22.0,14.9,13.2,5.4,-0.5,70,49,39,30.09,29.73,14,4,14,0.00
2013-12-14,20.1,14.7,11.8,12.3,-0.1,-7.9,75,52,36,30.30,29.79,8,3,8,0.00
2013-12-15,34.7,26.6,19.0,27.3,20.5,12.5,89,78,59,29.79,29.21,14,4,14,0.00
2013-12-16,28.8,22.0,12.6,16.7,4.7,-3.1,78,49,26,29.92,29.47,17,4,17,0.01
2013-12-17,15.8,9.2,-1.8,7.9,-0.7,-13.0,73,64,55,29.97,29.72,7,2,7,0.00
2013-12-18,35.1,22.5,14.2,18.3,12.1,6.8,74,65,49,29.77,29.64,11,2,11,0.00
2013-12-19,46.6,32.0,17.2,22.5,17.8,9.8,78,56,35,29.84,29.69,14,4,14,0.07
2013-12-20,54.5,40.5,27.9,31.2,26.8,20.3,79,60,37,29.84,29.64,10,2,10,0.02
2013-12-21,60.4,49.3,33.8,43.9,36.5,27.7,83,62,50,29.69,29.59,11,3,11,0.00
2013-12-22,66.9,60.8,54.0,58.1,54.4,47.3,91,80,65,29.65,29.45,21,7,21,0.00
2013-12-23,61.3,43.5,38.1,53.2,39.8,32.8,93,87,70,29.85,29.65,9,2,9,0.52
2013-12-24,37.2,31.8,25.5,26.6,15.6,6.4,68,51,38,29.95,29.78,15,4,15,0.00
2013-12-25,34.2,19.8,13.6,4.7,-2.2,-6.4,46,38,24,30.23,29.99,11,4,11,0.00
2013-12-26,32.0,24.7,17.6,23.7,14.3,-2.1,80,65,41,30.19,29.82,6,1,6,0.00
2013-12-27,39.9,25.5,14.9,21.3,14.1,8.1,79,63,39,30.02,29.93,8,2,8,0.01
2013-12-28,50.9,33.3,21.4,24.2,20.1,14.1,76,60,32,29.96,29.73,14,3,14,0.01
2013-12-29,39.9,32.6,25.2,36.3,27.5,19.3,93,81,66,29.77,29.19,10,1,10,0.79
2013-12-30,37.6,32.4,21.2,33.9,19.7,-0.3,90,64,27,29.85,29.31,23,4,23,0.01
2013-12-31,27.3,18.2,9.5,13.2,3.1,-3.1,71,52,31,29.93,29.74,14,2,14,0.00
2014-1-1,30.7,21.6,16.0,8.5,0.9,-5.9,60,40,27,30.09,29.92,13,4,13,0.00
2014-1-2,20.3,14.4,5.4,12.3,5.5,-4.5,73,67,61,30.05,29.53,13,4,13,0.00